Time;durP1;ratioP1;P1;durP2;ratioP2;P2;SDS_P1;SDS_P2;PMS_P1;PMS_P2;Temp;Humidity;BMP_temperature;BMP_pressure;BME280_temperature;BME280_humidity;BME280_pressure;Samples;Min_cycle;Max_cycle;Signal;HPM_P1;HPM_P2
2021/08/20 00:00:17;;;;;;;4.10;2.00;;;18.80;70.70;;;;;;5048543;28;20085;-78
2021/08/20 00:02:43;;;;;;;3.03;1.90;;;18.80;70.70;;;;;;5082665;28;20055;-79
2021/08/20 00:05:10;;;;;;;5.88;1.95;;;18.80;70.80;;;;;;5106768;28;20028;-78
2021/08/20 00:07:36;;;;;;;2.60;1.90;;;18.80;70.90;;;;;;5106499;28;20047;-77
2021/08/20 00:10:03;;;;;;;2.20;1.70;;;18.80;71.00;;;;;;5087964;28;20502;-78
2021/08/20 00:12:28;;;;;;;2.75;2.08;;;18.70;70.90;;;;;;5086023;28;20060;-77
2021/08/20 00:14:55;;;;;;;3.17;2.13;;;18.70;71.00;;;;;;5084675;28;20428;-78
2021/08/20 00:17:22;;;;;;;3.33;2.00;;;18.70;71.10;;;;;;5084703;28;20035;-77
2021/08/20 00:19:49;;;;;;;2.95;1.88;;;18.70;71.20;;;;;;5102328;28;20172;-77
2021/08/20 00:22:15;;;;;;;5.20;2.20;;;18.70;71.20;;;;;;5105169;28;20024;-77
2021/08/20 00:24:41;;;;;;;3.45;2.08;;;18.70;71.30;;;;;;5088901;28;20475;-77
2021/08/20 00:27:07;;;;;;;3.30;2.40;;;18.70;71.40;;;;;;5084333;28;20028;-77
2021/08/20 00:29:33;;;;;;;3.05;2.00;;;18.60;71.30;;;;;;5067941;28;20677;-77
2021/08/20 09:08:36;;;;;;;3.28;2.25;;;22.80;75.40;;;;;;5099054;28;20119;-80
2021/08/20 09:11:02;;;;;;;3.40;2.38;;;23.00;75.40;;;;;;5078030;28;20074;-81
2021/08/20 09:13:37;;;;;;;4.85;2.13;;;23.00;75.10;;;;;;5090621;28;20113;-80
2021/08/20 09:16:11;;;;;;;6.53;3.13;;;23.10;75.10;;;;;;5109628;28;20036;-78
2021/08/20 09:18:40;;;;;;;4.47;3.05;;;23.20;74.80;;;;;;5108158;28;20059;-79
2021/08/20 09:21:07;;;;;;;5.68;2.70;;;23.30;74.80;;;;;;5108666;28;20042;-82
2021/08/20 09:23:34;;;;;;;3.95;2.33;;;23.30;74.40;;;;;;5109814;28;20097;-79
2021/08/20 09:26:01;;;;;;;4.78;2.65;;;23.50;74.30;;;;;;5108222;28;20036;-82
2021/08/20 09:28:34;;;;;;;5.32;2.92;;;23.60;74.10;;;;;;5109282;28;20168;-81
2021/08/20 09:31:11;;;;;;;2.92;1.98;;;23.70;73.70;;;;;;5088773;28;20028;-81
2021/08/20 09:33:43;;;;;;;5.85;2.35;;;23.80;73.50;;;;;;5101152;28;20035;-84
2021/08/20 09:36:21;;;;;;;3.92;2.38;;;23.80;73.10;;;;;;5109127;28;20122;-82
2021/08/20 09:38:53;;;;;;;4.47;2.75;;;23.90;73.00;;;;;;5076482;28;20124;-79
2021/08/20 09:41:30;;;;;;;2.28;1.92;;;23.90;72.70;;;;;;5072665;28;20185;-79
2021/08/20 09:44:01;;;;;;;2.55;1.98;;;24.00;72.70;;;;;;5102167;28;20024;-77
2021/08/20 09:46:45;;;;;;;3.25;2.17;;;24.00;72.50;;;;;;5107895;28;20024;-79
2021/08/20 09:49:14;;;;;;;3.10;1.70;;;24.00;72.10;;;;;;5090628;28;20023;-79
2021/08/20 09:51:42;;;;;;;4.10;2.28;;;24.10;72.10;;;;;;5109393;28;20039;-78
2021/08/20 09:54:18;;;;;;;3.47;1.83;;;24.20;72.00;;;;;;5090742;28;20020;-78
2021/08/20 09:56:44;;;;;;;4.93;2.08;;;24.20;71.60;;;;;;5088597;28;20043;-80
2021/08/20 09:59:12;;;;;;;5.22;2.28;;;24.30;71.60;;;;;;5087570;28;20395;-82
2021/08/20 10:01:41;;;;;;;3.85;2.30;;;24.30;71.40;;;;;;5088178;28;20436;-83
2021/08/20 10:04:09;;;;;;;3.72;2.50;;;24.30;71.10;;;;;;5085759;28;20061;-80
2021/08/20 10:06:38;;;;;;;3.35;1.98;;;24.40;71.10;;;;;;5107219;28;20486;-81
2021/08/20 10:09:14;;;;;;;3.88;2.35;;;24.40;70.80;;;;;;5093294;28;20036;-79
2021/08/20 10:11:46;;;;;;;5.20;2.60;;;24.50;70.80;;;;;;5087009;28;20540;-80
2021/08/20 10:14:12;;;;;;;4.00;2.58;;;24.50;70.60;;;;;;5104976;28;20035;-80
2021/08/20 10:16:39;;;;;;;3.15;2.13;;;24.50;70.60;;;;;;5090017;28;20112;-78
2021/08/20 10:19:08;;;;;;;6.35;2.55;;;24.50;70.30;;;;;;5108203;28;20019;-79
2021/08/20 10:21:37;;;;;;;2.85;2.30;;;24.50;70.10;;;;;;5107793;28;20061;-77
2021/08/20 10:24:05;;;;;;;6.18;2.42;;;24.50;70.10;;;;;;5092449;28;20191;-80
2021/08/20 10:26:32;;;;;;;4.00;2.92;;;24.50;70.00;;;;;;5087751;28;20081;-81
2021/08/20 10:29:00;;;;;;;5.25;2.30;;;24.50;69.90;;;;;;5085624;28;20036;-84
2021/08/20 10:31:27;;;;;;;4.25;2.83;;;24.50;69.80;;;;;;5085875;28;20024;-83
2021/08/20 10:33:54;;;;;;;4.55;2.45;;;24.60;69.80;;;;;;5086836;28;20054;-78
2021/08/20 10:36:39;;;;;;;4.55;2.47;;;24.70;69.80;;;;;;5086371;28;20044;-80
2021/08/20 10:39:07;;;;;;;4.55;2.80;;;24.80;69.60;;;;;;5086131;28;20024;-79
2021/08/20 10:41:34;;;;;;;5.05;2.47;;;24.90;69.70;;;;;;5086299;28;20494;-82
2021/08/20 10:44:07;;;;;;;3.22;2.30;;;25.10;69.80;;;;;;5082128;28;20536;-81
2021/08/20 10:46:33;;;;;;;3.83;2.08;;;25.20;69.60;;;;;;5077914;28;20398;-78
2021/08/20 10:49:20;;;;;;;3.70;2.17;;;25.40;69.50;;;;;;5085632;28;20605;-79
2021/08/20 10:51:58;;;;;;;4.25;2.25;;;25.50;69.40;;;;;;5085437;28;20035;-80
2021/08/20 10:54:30;;;;;;;3.00;2.13;;;25.70;69.20;;;;;;5103792;28;20061;-78
2021/08/20 10:57:00;;;;;;;4.18;2.15;;;25.80;69.10;;;;;;5075153;28;20424;-79
2021/08/20 10:59:43;;;;;;;3.60;2.47;;;26.00;69.00;;;;;;5061205;28;20024;-81
2021/08/20 11:02:19;;;;;;;4.28;2.20;;;26.10;68.80;;;;;;5082414;28;20123;-82
2021/08/20 11:04:59;;;;;;;3.17;2.22;;;26.20;68.70;;;;;;5065413;28;20543;-81
2021/08/20 11:07:35;;;;;;;2.75;2.05;;;26.30;68.60;;;;;;5066474;28;20102;-79
2021/08/20 11:10:10;;;;;;;2.55;1.73;;;26.40;68.50;;;;;;5064562;28;20032;-81
2021/08/20 11:12:48;;;;;;;2.55;2.10;;;26.40;68.40;;;;;;5069362;28;20086;-83
2021/08/20 11:15:17;;;;;;;3.35;2.42;;;26.50;68.40;;;;;;5084841;28;20039;-82
2021/08/20 11:18:00;;;;;;;3.17;2.58;;;26.60;68.30;;;;;;5083532;28;20119;-82
2021/08/20 11:20:27;;;;;;;;;;;26.70;68.30;;;;;;5078991;28;20044;-82
2021/08/20 11:23:07;;;;;;;3.03;2.20;;;26.80;68.50;;;;;;5076538;28;19912;-81
2021/08/20 11:25:50;;;;;;;3.97;2.22;;;26.90;68.20;;;;;;5103532;28;20495;-82
2021/08/20 11:28:20;;;;;;;2.92;1.95;;;27.00;68.00;;;;;;5085063;28;20044;-83
2021/08/20 11:31:06;;;;;;;4.85;1.85;;;27.00;67.90;;;;;;5065011;28;20384;-85
2021/08/20 11:33:48;;;;;;;3.97;2.17;;;27.10;67.80;;;;;;5095160;28;20514;-81
2021/08/20 11:36:18;;;;;;;4.80;2.40;;;27.10;67.70;;;;;;5106156;28;20088;-82
2021/08/20 11:38:47;;;;;;;3.10;2.35;;;27.00;67.60;;;;;;5096335;28;20031;-81
2021/08/20 11:41:20;;;;;;;4.40;2.13;;;27.10;67.70;;;;;;5085816;28;20024;-81
2021/08/20 11:43:49;;;;;;;2.30;2.08;;;27.10;67.60;;;;;;5062363;28;20037;-82
2021/08/20 11:46:16;;;;;;;3.67;2.08;;;27.20;67.50;;;;;;5057998;28;20103;-82
2021/08/20 11:48:47;;;;;;;3.13;2.30;;;27.20;67.40;;;;;;5076215;28;20031;-80
2021/08/20 11:51:24;;;;;;;2.60;1.83;;;27.20;67.40;;;;;;5080990;28;20157;-83
2021/08/20 11:53:50;;;;;;;4.35;2.22;;;27.20;67.30;;;;;;5090175;28;20055;-82
2021/08/20 11:56:16;;;;;;;3.30;2.33;;;27.20;67.30;;;;;;5106138;28;20051;-80
2021/08/20 11:58:44;;;;;;;3.30;2.30;;;27.10;67.20;;;;;;5106291;28;20032;-80
2021/08/20 12:01:14;;;;;;;3.00;1.92;;;27.10;67.20;;;;;;5101626;28;20035;-81
2021/08/20 12:03:44;;;;;;;2.53;1.90;;;27.10;67.20;;;;;;5084335;28;20074;-82
2021/08/20 12:06:13;;;;;;;3.88;2.50;;;27.00;67.20;;;;;;5087125;28;20103;-83
2021/08/20 12:08:39;;;;;;;3.97;2.45;;;27.00;67.40;;;;;;5085869;28;20024;-80
2021/08/20 12:11:07;;;;;;;2.85;2.08;;;26.90;67.40;;;;;;5085755;28;20047;-80
2021/08/20 12:13:49;;;;;;;7.65;2.45;;;26.80;67.40;;;;;;5094868;28;20024;-78
2021/08/20 12:16:41;;;;;;;3.00;2.30;;;26.80;67.50;;;;;;5106464;28;20039;-77
2021/08/20 12:19:22;;;;;;;3.47;1.98;;;26.70;67.50;;;;;;5104884;28;20096;-81
2021/08/20 12:21:53;;;;;;;3.47;2.53;;;26.80;67.50;;;;;;5106298;28;20066;-81
2021/08/20 12:24:35;;;;;;;3.22;2.17;;;26.80;67.60;;;;;;5104764;28;20047;-82
2021/08/20 12:27:13;;;;;;;4.22;2.17;;;26.80;67.60;;;;;;5069361;28;20380;-81
2021/08/20 12:29:39;;;;;;;4.07;2.30;;;26.80;67.50;;;;;;5100687;28;20035;-78
2021/08/20 12:32:05;;;;;;;3.78;2.30;;;26.80;68.00;;;;;;5092914;28;20038;-80
2021/08/20 12:34:36;;;;;;;4.97;2.63;;;26.80;67.40;;;;;;5095919;28;20112;-81
2021/08/20 12:37:05;;;;;;;3.60;2.33;;;26.80;67.30;;;;;;5081891;28;20206;-81
2021/08/20 12:39:38;;;;;;;3.17;1.90;;;26.80;67.40;;;;;;5085283;28;20020;-80
2021/08/20 12:42:24;;;;;;;3.90;2.50;;;26.70;67.30;;;;;;5084574;28;20032;-80
2021/08/20 12:45:06;;;;;;;3.95;2.63;;;26.70;67.30;;;;;;5065813;28;20523;-80
2021/08/20 12:47:32;;;;;;;2.67;1.90;;;26.60;67.30;;;;;;5064909;28;20070;-80
2021/08/20 12:50:05;;;;;;;3.33;2.25;;;26.60;67.50;;;;;;5104605;28;20514;-80
2021/08/20 12:52:31;;;;;;;4.68;2.28;;;26.50;67.40;;;;;;5106445;28;20027;-80
2021/08/20 12:54:57;;;;;;;4.13;1.73;;;26.60;67.50;;;;;;5097762;28;20032;-80
2021/08/20 12:57:23;;;;;;;2.92;1.98;;;26.60;67.40;;;;;;5075135;28;20071;-82
2021/08/20 13:00:01;;;;;;;3.15;2.38;;;26.60;67.40;;;;;;5087999;28;20518;-78
2021/08/20 13:02:27;;;;;;;5.30;2.30;;;26.60;67.30;;;;;;5078510;28;20025;-79
2021/08/20 13:04:53;;;;;;;2.90;2.25;;;26.70;67.10;;;;;;5109302;28;20419;-79
2021/08/20 13:07:19;;;;;;;3.88;2.60;;;26.70;66.90;;;;;;5110310;28;20538;-77
2021/08/20 13:09:45;;;;;;;3.13;2.28;;;26.80;66.70;;;;;;5109939;28;20047;-78
2021/08/20 13:12:11;;;;;;;2.97;2.08;;;26.80;66.50;;;;;;5093981;28;20114;-79
2021/08/20 13:14:37;;;;;;;4.22;2.13;;;27.00;66.30;;;;;;5109225;28;20443;-79
2021/08/20 13:17:03;;;;;;;2.83;2.25;;;27.00;66.20;;;;;;5110735;28;20046;-79
2021/08/20 13:19:29;;;;;;;6.18;2.33;;;27.10;66.00;;;;;;5109354;28;20026;-80
2021/08/20 13:21:58;;;;;;;3.45;1.83;;;27.20;65.80;;;;;;5108536;28;20382;-79
2021/08/20 13:24:25;;;;;;;2.80;1.67;;;27.20;65.50;;;;;;5110439;28;20027;-79
2021/08/20 13:26:51;;;;;;;6.57;2.03;;;27.30;65.30;;;;;;5110650;28;20039;-78
2021/08/20 13:29:17;;;;;;;2.80;1.83;;;27.30;65.10;;;;;;5110191;27;20043;-79
2021/08/20 13:31:44;;;;;;;4.78;1.65;;;27.30;64.90;;;;;;5104061;28;20340;-79
2021/08/20 13:34:10;;;;;;;3.25;1.65;;;27.30;64.90;;;;;;5089227;28;20032;-78
2021/08/20 13:36:36;;;;;;;2.75;1.98;;;27.30;64.90;;;;;;5088590;28;20043;-80
2021/08/20 13:39:02;;;;;;;2.00;1.45;;;27.20;64.80;;;;;;5100746;28;20028;-78
2021/08/20 13:41:32;;;;;;;2.72;1.85;;;27.20;64.80;;;;;;5108756;28;20119;-78
2021/08/20 13:43:59;;;;;;;2.25;1.60;;;27.10;64.70;;;;;;5092771;28;20032;-79
2021/08/20 13:46:25;;;;;;;1.88;1.50;;;26.90;64.80;;;;;;5088180;28;20035;-78
2021/08/20 13:48:52;;;;;;;3.60;1.30;;;26.80;64.90;;;;;;5098723;28;20077;-77
2021/08/20 13:51:19;;;;;;;4.55;1.77;;;26.60;65.00;;;;;;5089683;28;20563;-78
2021/08/20 13:53:45;;;;;;;2.80;1.80;;;26.50;65.20;;;;;;5095731;28;20529;-79
2021/08/20 13:56:11;;;;;;;2.92;1.65;;;26.30;65.40;;;;;;5086627;28;20047;-78
2021/08/20 13:58:38;;;;;;;4.63;2.10;;;26.20;65.50;;;;;;5086952;28;20891;-78
2021/08/20 14:01:05;;;;;;;3.08;1.80;;;26.10;65.70;;;;;;5068953;28;20502;-77
2021/08/20 14:03:31;;;;;;;3.00;2.05;;;25.90;65.80;;;;;;5085213;28;20147;-78
2021/08/20 14:05:57;;;;;;;2.92;1.50;;;25.80;65.90;;;;;;5088711;28;20039;-76
2021/08/20 14:08:24;;;;;;;2.67;1.90;;;25.70;66.10;;;;;;5094693;28;20024;-78
2021/08/20 14:10:50;;;;;;;3.85;2.08;;;25.60;66.20;;;;;;5108726;28;20250;-78
2021/08/20 14:13:17;;;;;;;1.90;1.67;;;25.50;66.40;;;;;;5089811;28;20543;-79
2021/08/20 14:15:43;;;;;;;1.88;1.52;;;25.40;66.50;;;;;;5108909;28;20558;-81
2021/08/20 14:18:09;;;;;;;4.88;1.50;;;25.30;66.70;;;;;;5107157;28;20031;-83
2021/08/20 14:20:37;;;;;;;3.50;1.88;;;25.20;66.90;;;;;;5107098;28;20051;-81
2021/08/20 14:23:03;;;;;;;3.20;2.10;;;25.10;67.00;;;;;;5108522;28;20053;-80
2021/08/20 14:25:30;;;;;;;2.13;1.75;;;25.10;67.20;;;;;;5107006;28;20450;-81
2021/08/20 14:27:56;;;;;;;5.65;1.67;;;25.00;67.30;;;;;;5106546;28;20043;-81
2021/08/20 14:30:22;;;;;;;3.47;2.00;;;25.00;67.40;;;;;;5108499;28;20032;-79
2021/08/20 14:32:48;;;;;;;3.22;2.17;;;24.90;67.40;;;;;;5093743;28;20484;-81
2021/08/20 14:35:15;;;;;;;3.95;2.33;;;24.80;67.90;;;;;;5107581;28;20032;-81
2021/08/20 14:37:41;;;;;;;3.45;2.15;;;24.70;67.30;;;;;;5107485;28;20035;-83
2021/08/20 14:40:08;;;;;;;3.25;2.50;;;24.60;67.30;;;;;;5108031;28;20035;-82
2021/08/20 14:42:34;;;;;;;4.50;2.30;;;24.50;67.30;;;;;;5104076;28;20123;-81
2021/08/20 14:45:01;;;;;;;2.83;2.33;;;24.50;67.50;;;;;;5087523;28;20110;-83
2021/08/20 14:47:27;;;;;;;2.58;2.15;;;24.40;67.60;;;;;;5087519;28;20032;-81
2021/08/20 14:49:53;;;;;;;4.57;2.35;;;24.40;67.80;;;;;;5106323;28;20045;-81
2021/08/20 14:52:19;;;;;;;3.00;2.00;;;24.30;67.80;;;;;;5107376;28;20462;-81
2021/08/20 14:54:45;;;;;;;2.88;2.17;;;24.30;68.00;;;;;;5087164;28;20115;-81
2021/08/20 14:57:11;;;;;;;2.70;2.25;;;24.20;68.00;;;;;;5086255;28;20081;-83
2021/08/20 14:59:37;;;;;;;2.60;2.08;;;24.20;68.20;;;;;;5087085;28;20024;-80
2021/08/20 15:02:03;;;;;;;2.88;2.38;;;24.20;68.90;;;;;;5087314;28;20028;-80
2021/08/20 15:04:32;;;;;;;5.68;2.70;;;24.10;68.40;;;;;;5085781;28;20447;-81
2021/08/20 15:06:58;;;;;;;2.75;2.33;;;24.10;68.70;;;;;;5084494;28;20028;-80
2021/08/20 15:09:24;;;;;;;3.65;2.33;;;24.10;68.90;;;;;;5088983;28;20020;-80
2021/08/20 15:11:50;;;;;;;2.92;2.13;;;24.10;69.10;;;;;;5087054;28;20052;-80
2021/08/20 15:14:16;;;;;;;3.53;2.00;;;24.00;69.10;;;;;;5076845;28;20052;-79
2021/08/20 15:16:42;;;;;;;5.55;2.05;;;24.00;69.30;;;;;;5065789;28;20130;-80
2021/08/20 15:19:08;;;;;;;4.90;2.10;;;24.00;69.50;;;;;;5091776;28;20651;-79
2021/08/20 15:21:35;;;;;;;4.25;1.92;;;23.90;69.50;;;;;;5107516;28;20028;-80
2021/08/20 15:24:01;;;;;;;4.18;1.90;;;23.80;69.40;;;;;;5076417;28;20036;-80
2021/08/20 15:26:27;;;;;;;2.33;1.65;;;23.80;69.50;;;;;;5066793;28;20035;-80
2021/08/20 15:28:53;;;;;;;2.40;1.77;;;23.80;69.70;;;;;;5097068;28;20474;-80
2021/08/20 15:31:19;;;;;;;2.15;1.80;;;23.80;69.80;;;;;;5081958;28;20081;-80
2021/08/20 15:33:45;;;;;;;2.30;1.83;;;23.70;69.80;;;;;;5084935;28;20126;-79
2021/08/20 15:36:11;;;;;;;1.80;1.67;;;23.70;69.90;;;;;;5085953;28;20054;-80
2021/08/20 15:38:37;;;;;;;2.72;1.92;;;23.70;70.10;;;;;;5094940;28;20026;-79
2021/08/20 15:41:08;;;;;;;2.00;1.75;;;23.60;70.00;;;;;;5106864;28;20031;-80
2021/08/20 15:43:34;;;;;;;2.47;1.40;;;23.60;70.20;;;;;;5097274;28;20141;-79
2021/08/20 15:46:00;;;;;;;3.35;1.85;;;23.60;70.30;;;;;;5085065;28;20043;-80
2021/08/20 15:48:27;;;;;;;2.50;1.98;;;23.60;70.40;;;;;;5092791;28;20040;-79
2021/08/20 15:50:53;;;;;;;1.85;1.55;;;23.60;70.50;;;;;;5106639;28;20109;-78
2021/08/20 15:53:19;;;;;;;3.80;1.70;;;23.60;70.60;;;;;;5098254;28;20028;-79
2021/08/20 15:55:45;;;;;;;2.95;1.85;;;23.70;70.90;;;;;;5086422;28;20532;-83
2021/08/20 15:58:12;;;;;;;2.85;1.98;;;23.60;70.80;;;;;;5090534;28;20043;-78
2021/08/20 16:00:38;;;;;;;2.40;1.42;;;23.60;70.80;;;;;;5107214;28;20130;-81
2021/08/20 16:03:04;;;;;;;2.65;1.80;;;23.60;70.80;;;;;;5086505;28;20035;-81
2021/08/20 16:05:32;;;;;;;2.03;1.67;;;23.70;71.00;;;;;;5085571;28;20031;-81
2021/08/20 16:07:58;;;;;;;4.30;1.92;;;23.60;70.90;;;;;;5090231;28;20097;-82
2021/08/20 16:10:24;;;;;;;2.53;1.92;;;23.70;71.20;;;;;;5106070;28;20044;-83
2021/08/20 16:12:51;;;;;;;3.00;1.98;;;23.70;71.20;;;;;;5104991;28;20048;-87
2021/08/20 16:15:17;;;;;;;3.60;2.08;;;23.60;71.20;;;;;;5078140;28;20466;-85
2021/08/20 16:17:43;;;;;;;3.03;2.10;;;23.60;71.20;;;;;;5083625;28;20067;-80
2021/08/20 16:20:10;;;;;;;3.85;2.40;;;23.60;71.40;;;;;;5072623;28;20064;-81
2021/08/20 16:22:41;;;;;;;4.13;3.10;;;23.60;71.40;;;;;;5075628;28;20039;-79
2021/08/20 16:25:08;;;;;;;4.28;3.20;;;23.60;71.50;;;;;;5067599;28;20249;-79
2021/08/20 16:27:34;;;;;;;10.55;3.63;;;23.60;71.50;;;;;;5067471;28;20017;-77
2021/08/20 16:30:03;;;;;;;10.50;4.53;;;23.60;71.70;;;;;;5109611;28;20478;-79
2021/08/20 16:32:29;;;;;;;6.13;4.43;;;23.50;72.40;;;;;;5093941;28;20185;-77
2021/08/20 16:34:55;;;;;;;7.10;4.32;;;23.60;72.30;;;;;;5088598;28;20039;-77
2021/08/20 16:37:21;;;;;;;8.40;4.20;;;23.50;72.40;;;;;;5090080;28;20036;-77
2021/08/20 16:39:47;;;;;;;4.60;3.45;;;23.50;72.60;;;;;;5105996;28;20024;-78
2021/08/20 16:42:13;;;;;;;5.72;3.63;;;23.40;72.50;;;;;;5107661;28;20024;-78
2021/08/20 16:44:39;;;;;;;4.13;3.22;;;23.40;72.70;;;;;;5091543;28;20505;-78
2021/08/20 16:47:08;;;;;;;4.32;3.45;;;23.30;72.60;;;;;;5088217;28;20498;-80
2021/08/20 16:49:34;;;;;;;4.40;3.17;;;23.20;72.60;;;;;;5088001;28;20038;-80
2021/08/20 16:52:00;;;;;;;5.30;3.33;;;23.20;72.70;;;;;;5083169;28;20020;-80
2021/08/20 16:54:26;;;;;;;4.95;3.15;;;23.10;72.60;;;;;;5086535;28;20028;-78
2021/08/20 16:56:52;;;;;;;4.70;3.50;;;23.10;72.70;;;;;;5089303;28;20130;-81
2021/08/20 16:59:20;;;;;;;7.20;3.20;;;23.10;72.80;;;;;;5101995;28;20114;-78
2021/08/20 17:01:47;;;;;;;5.53;3.53;;;23.10;72.80;;;;;;5082032;28;20031;-80
2021/08/20 17:04:13;;;;;;;3.30;3.00;;;23.00;72.70;;;;;;5088749;28;20429;-80
2021/08/20 17:06:39;;;;;;;3.90;2.67;;;22.90;72.60;;;;;;5088036;28;20101;-79
2021/08/20 17:09:05;;;;;;;5.63;3.97;;;22.90;72.70;;;;;;5089081;28;20514;-80
2021/08/20 17:11:31;;;;;;;5.65;3.30;;;22.90;72.80;;;;;;5089156;28;20071;-80
2021/08/20 17:13:58;;;;;;;5.40;2.90;;;22.80;72.70;;;;;;5100341;28;20035;-78
2021/08/20 17:16:24;;;;;;;10.82;3.63;;;22.80;72.80;;;;;;5109392;28;20184;-80
2021/08/20 17:18:50;;;;;;;4.43;3.17;;;22.70;72.70;;;;;;5107884;28;20043;-79
2021/08/20 17:21:18;;;;;;;4.18;2.92;;;22.70;72.80;;;;;;5109092;28;20102;-79
2021/08/20 17:23:46;;;;;;;6.63;3.28;;;22.70;72.80;;;;;;5109201;28;20053;-80
2021/08/20 17:26:13;;;;;;;3.63;3.22;;;22.60;72.80;;;;;;5107875;28;20039;-79
2021/08/20 17:28:39;;;;;;;3.80;2.95;;;22.60;72.80;;;;;;5103658;27;20039;-80
2021/08/20 17:31:05;;;;;;;6.15;3.17;;;22.60;72.90;;;;;;5080527;28;20659;-78
2021/08/20 17:33:31;;;;;;;5.93;2.85;;;22.50;72.80;;;;;;5076574;28;20036;-79
2021/08/20 17:35:57;;;;;;;4.80;3.45;;;22.50;72.90;;;;;;5087197;28;20539;-80
2021/08/20 17:38:23;;;;;;;5.38;3.30;;;22.50;72.90;;;;;;5094203;28;20520;-82
2021/08/20 17:40:49;;;;;;;5.30;2.97;;;22.40;72.90;;;;;;5107920;28;20051;-83
2021/08/20 17:43:15;;;;;;;4.22;3.13;;;22.40;72.90;;;;;;5107179;28;20114;-79
2021/08/20 17:45:41;;;;;;;5.25;3.35;;;22.40;72.90;;;;;;5108309;28;20149;-80
2021/08/20 17:48:07;;;;;;;3.03;2.67;;;22.40;73.00;;;;;;5109104;28;20028;-81
2021/08/20 17:50:35;;;;;;;3.38;2.50;;;22.30;72.90;;;;;;5108833;28;20505;-80
2021/08/20 17:53:05;;;;;;;6.00;2.78;;;22.30;73.00;;;;;;5103674;28;20089;-80
2021/08/20 17:55:32;;;;;;;3.85;2.47;;;22.30;73.10;;;;;;5086802;28;20096;-81
2021/08/20 17:57:58;;;;;;;5.45;2.45;;;22.30;73.20;;;;;;5088901;28;20479;-84
2021/08/20 18:00:24;;;;;;;4.55;2.80;;;22.30;73.20;;;;;;5108975;28;20126;-82
2021/08/20 18:02:50;;;;;;;4.25;2.97;;;22.30;73.30;;;;;;5089611;28;20035;-83
2021/08/20 18:05:16;;;;;;;2.95;2.50;;;22.30;73.40;;;;;;5086824;28;20036;-81
2021/08/20 18:07:42;;;;;;;4.00;2.92;;;22.30;73.60;;;;;;5086220;28;20032;-81
2021/08/20 18:10:08;;;;;;;3.03;2.50;;;22.30;73.70;;;;;;5107454;28;20080;-87
2021/08/20 18:12:36;;;;;;;4.40;2.70;;;22.30;73.80;;;;;;5107281;28;20046;-81
2021/08/20 18:15:04;;;;;;;3.50;3.17;;;22.30;73.80;;;;;;5088214;28;20036;-81
2021/08/20 18:17:30;;;;;;;3.03;2.47;;;22.40;74.10;;;;;;5091757;28;20039;-80
2021/08/20 18:19:56;;;;;;;3.38;2.67;;;22.30;73.90;;;;;;5107031;28;20035;-81
2021/08/20 18:22:22;;;;;;;6.03;2.92;;;22.40;74.20;;;;;;5107189;28;20499;-81
2021/08/20 18:24:48;;;;;;;3.15;2.67;;;22.40;74.20;;;;;;5089473;28;20115;-81
2021/08/20 18:27:14;;;;;;;3.38;2.50;;;22.30;74.10;;;;;;5088503;28;20395;-82
2021/08/20 18:29:40;;;;;;;4.03;2.85;;;22.30;74.20;;;;;;5103694;28;20538;-79
2021/08/20 18:32:06;;;;;;;3.28;2.00;;;22.30;74.30;;;;;;5097079;28;20165;-79
2021/08/20 18:34:32;;;;;;;2.60;2.13;;;22.30;74.40;;;;;;5087342;28;20084;-78
2021/08/20 18:36:59;;;;;;;3.72;2.10;;;22.30;74.50;;;;;;5082967;28;20032;-80
2021/08/20 18:39:25;;;;;;;5.22;2.40;;;22.30;74.60;;;;;;5098510;28;20623;-79
2021/08/20 18:41:51;;;;;;;2.22;1.98;;;22.20;74.60;;;;;;5076070;28;20035;-80
2021/08/20 18:44:17;;;;;;;3.03;2.28;;;22.10;74.50;;;;;;5078594;28;20127;-80
2021/08/20 18:46:43;;;;;;;4.85;2.78;;;22.10;74.60;;;;;;5082987;28;20502;-79
2021/08/20 18:49:10;;;;;;;3.15;2.05;;;22.10;74.80;;;;;;5098734;28;20367;-77
2021/08/20 18:51:36;;;;;;;4.13;2.75;;;22.10;74.90;;;;;;5107661;28;20027;-78
2021/08/20 18:54:03;;;;;;;5.38;2.17;;;22.10;75.00;;;;;;5094872;28;20039;-80
2021/08/20 18:56:29;;;;;;;3.05;2.20;;;22.00;75.00;;;;;;5107695;28;20039;-80
2021/08/20 18:58:55;;;;;;;2.63;2.33;;;22.00;75.00;;;;;;5105593;28;20046;-82
2021/08/20 19:01:21;;;;;;;3.13;2.22;;;21.90;75.00;;;;;;5093470;28;20086;-78
2021/08/20 19:03:47;;;;;;;3.05;1.98;;;21.90;75.10;;;;;;5085016;28;20115;-79
2021/08/20 19:06:13;;;;;;;3.03;2.35;;;21.90;75.80;;;;;;5088241;28;20043;-78
2021/08/20 19:08:39;;;;;;;3.40;1.98;;;21.90;75.30;;;;;;5084984;28;20482;-78
2021/08/20 19:11:06;;;;;;;3.58;2.22;;;21.80;75.20;;;;;;5106253;28;20036;-79
2021/08/20 19:13:33;;;;;;;4.45;2.13;;;21.80;75.30;;;;;;5098666;28;20028;-79
2021/08/20 19:16:01;;;;;;;3.42;2.05;;;21.80;75.40;;;;;;5083376;28;20044;-79
2021/08/20 19:18:28;;;;;;;3.95;1.92;;;21.70;75.20;;;;;;5082525;28;20503;-79
2021/08/20 19:20:54;;;;;;;4.68;2.38;;;21.70;75.30;;;;;;5069098;28;20036;-79
2021/08/20 19:23:20;;;;;;;2.28;1.98;;;21.60;75.20;;;;;;5079555;28;20024;-80
2021/08/20 19:25:48;;;;;;;2.45;1.83;;;21.60;75.20;;;;;;5080339;28;20074;-81
2021/08/20 19:28:14;;;;;;;3.45;2.08;;;21.60;75.20;;;;;;5076443;28;20035;-79
2021/08/20 19:30:40;;;;;;;3.40;2.17;;;21.50;75.10;;;;;;5070991;28;20499;-77
2021/08/20 19:33:06;;;;;;;6.07;2.45;;;21.50;75.10;;;;;;5075898;28;20032;-78
2021/08/20 19:35:32;;;;;;;2.47;2.28;;;21.50;75.20;;;;;;5065923;28;20044;-77
2021/08/20 19:37:58;;;;;;;4.13;2.42;;;21.40;75.20;;;;;;5073814;28;20021;-78
2021/08/20 19:40:24;;;;;;;2.90;2.15;;;21.40;75.30;;;;;;5091901;28;20042;-78
2021/08/20 19:42:50;;;;;;;3.58;2.03;;;21.40;75.30;;;;;;5097733;28;20032;-79
2021/08/20 19:45:17;;;;;;;4.72;2.15;;;21.30;75.20;;;;;;5087315;28;20415;-79
2021/08/20 19:47:44;;;;;;;4.43;2.28;;;21.30;75.20;;;;;;5086487;28;20035;-78
2021/08/20 19:50:10;;;;;;;4.90;2.13;;;21.20;75.10;;;;;;5106805;28;20130;-79
2021/08/20 19:52:37;;;;;;;3.95;1.90;;;21.20;75.20;;;;;;5104973;28;20046;-79
2021/08/20 19:55:04;;;;;;;4.78;2.60;;;21.20;75.20;;;;;;5086546;28;20028;-80
2021/08/20 19:57:30;;;;;;;3.00;2.05;;;21.20;75.30;;;;;;5087204;28;20456;-79
2021/08/20 19:59:57;;;;;;;2.75;2.10;;;21.10;75.10;;;;;;5104139;28;20027;-79
2021/08/20 20:02:23;;;;;;;3.30;1.95;;;21.10;75.10;;;;;;5093277;28;20035;-79
2021/08/20 20:04:48;;;;;;;2.45;2.05;;;21.10;75.20;;;;;;5104895;28;20099;-79
2021/08/20 20:07:14;;;;;;;3.55;2.25;;;21.10;75.20;;;;;;5085519;28;20024;-79
2021/08/20 20:09:40;;;;;;;3.08;1.95;;;21.10;75.30;;;;;;5101071;28;20032;-79
2021/08/20 20:12:06;;;;;;;2.67;1.70;;;21.00;75.10;;;;;;5106765;28;20047;-80
2021/08/20 20:14:34;;;;;;;3.08;1.75;;;21.00;75.20;;;;;;5106309;28;20028;-80
2021/08/20 20:17:00;;;;;;;2.78;1.75;;;21.00;75.30;;;;;;5106401;28;20039;-79
2021/08/20 20:19:26;;;;;;;2.65;1.70;;;20.90;75.10;;;;;;5105580;28;20028;-80
2021/08/20 20:21:52;;;;;;;3.05;1.90;;;20.90;75.10;;;;;;5105785;28;20382;-79
2021/08/20 20:24:18;;;;;;;2.10;1.85;;;20.90;75.20;;;;;;5105636;28;20028;-79
2021/08/20 20:26:44;;;;;;;2.33;1.98;;;20.80;75.00;;;;;;5106299;28;20101;-80
2021/08/20 20:29:11;;;;;;;2.03;1.58;;;20.80;75.10;;;;;;5106363;28;20540;-79
2021/08/20 20:31:37;;;;;;;2.42;2.10;;;20.80;75.10;;;;;;5099760;28;20508;-81
2021/08/20 20:34:03;;;;;;;2.72;1.98;;;20.80;75.20;;;;;;5085079;28;20059;-79
2021/08/20 20:36:29;;;;;;;4.35;1.95;;;20.70;75.10;;;;;;5068703;28;20138;-80
2021/08/20 20:38:55;;;;;;;3.72;2.22;;;20.70;75.10;;;;;;5095140;28;20023;-79
2021/08/20 20:41:21;;;;;;;3.85;2.35;;;20.70;75.10;;;;;;5107939;28;20505;-80
2021/08/20 20:43:49;;;;;;;2.20;1.85;;;20.70;75.20;;;;;;5104871;28;20019;-79
2021/08/20 20:46:18;;;;;;;2.00;1.60;;;20.60;75.00;;;;;;5106703;28;20066;-79
2021/08/20 20:48:44;;;;;;;2.70;2.30;;;20.60;75.10;;;;;;5098350;28;20024;-79
2021/08/20 20:51:10;;;;;;;3.30;1.92;;;20.60;75.10;;;;;;5068063;28;20482;-79
2021/08/20 20:53:36;;;;;;;3.08;1.98;;;20.60;75.20;;;;;;5067791;28;20032;-79
2021/08/20 20:56:02;;;;;;;3.20;2.17;;;20.60;75.20;;;;;;5084831;28;20074;-80
2021/08/20 20:58:28;;;;;;;5.00;2.00;;;20.60;75.20;;;;;;5085019;28;20487;-80
2021/08/20 21:00:57;;;;;;;3.33;2.05;;;20.50;75.10;;;;;;5086278;28;20039;-78
2021/08/20 21:03:23;;;;;;;2.03;1.55;;;20.50;75.20;;;;;;5084669;28;20082;-77
2021/08/20 21:05:50;;;;;;;2.90;1.92;;;20.50;75.20;;;;;;5084687;28;20174;-78
2021/08/20 21:08:16;;;;;;;5.30;1.73;;;20.50;75.20;;;;;;5089077;28;20024;-78
2021/08/20 21:10:42;;;;;;;4.13;2.17;;;20.40;75.10;;;;;;5105691;28;20394;-79
2021/08/20 21:13:08;;;;;;;2.85;2.00;;;20.40;75.10;;;;;;5101751;28;20416;-78
2021/08/20 21:15:34;;;;;;;2.10;1.90;;;20.40;75.10;;;;;;5089385;28;20044;-79
2021/08/20 21:18:00;;;;;;;2.83;2.13;;;20.40;75.20;;;;;;5089252;28;20123;-78
2021/08/20 21:20:26;;;;;;;2.78;1.83;;;20.40;75.20;;;;;;5107865;28;20023;-78
2021/08/20 21:22:54;;;;;;;2.80;2.15;;;20.40;75.20;;;;;;5109997;28;20047;-78
2021/08/20 21:25:20;;;;;;;2.58;1.92;;;20.40;75.30;;;;;;5090479;28;20054;-79
2021/08/20 21:27:46;;;;;;;2.20;1.75;;;20.30;75.10;;;;;;5089128;28;20358;-81